15:23
Airports
Links
Donate
Help keep this website running!
PayPal
Bitcoin
METAR
RKPC 191500Z 36003KT 360V080 CAVOK 05/M05 Q1023 NOSIG
Current Weather Conditions at RKPC
VFR 15:00:00 19-01-18
Altimeter:30.21 hg
Temp:5.0°c 41°f
Dew point:-5.0°c 23°f
Wind:3 knots, 3.5 mph, 2 m/s, from 360°
Visibility:6.21 statute miles
(CAVOK)
No significant weather changes expected within 2 hours.
Past METAR reports
VFR 14:00:00 19-01-18
Altimeter:30.21 hg
Temp:6.0°c 43°f
Dew point:-4.0°c 25°f
Wind:5 knots, 5.8 mph, 3 m/s, from 10°
Visibility:6.21 statute miles
(CAVOK)
No significant weather changes expected within 2 hours.
RKPC 191400Z 01005KT 340V040 CAVOK 06/M04 Q1023 NOSIG
VFR 13:00:00 19-01-18
Altimeter:30.21 hg
Temp:6.0°c 43°f
Dew point:-3.0°c 27°f
Wind:4 knots, 4.6 mph, 2 m/s, from 350°
Visibility:6.21 statute miles
(CAVOK)
No significant weather changes expected within 2 hours.
RKPC 191300Z 35004KT 310V040 CAVOK 06/M03 Q1023 NOSIG
VFR 12:00:00 19-01-18
Altimeter:30.18 hg
Temp:5.0°c 41°f
Dew point:-4.0°c 25°f
Wind:2 knots, 2.3 mph, 1 m/s, from 40°
Visibility:6.21 statute miles
(CAVOK)
No significant weather changes expected within 2 hours.
RKPC 191200Z 04002KT CAVOK 05/M04 Q1022 NOSIG
VFR 11:00:00 19-01-18
Altimeter:30.18 hg
Temp:5.0°c 41°f
Dew point:-4.0°c 25°f
Wind:4 knots, 4.6 mph, 2 m/s, from 190°
Visibility:6.21 statute miles
3500(FEW) A few
No significant weather changes expected within 2 hours.
RKPC 191100Z 19004KT 9999 FEW035 05/M04 Q1022 NOSIG
VFR 10:00:00 19-01-18
Altimeter:30.18 hg
Temp:5.0°c 41°f
Dew point:-4.0°c 25°f
Wind:5 knots, 5.8 mph, 3 m/s, from 210°
Visibility:6.21 statute miles
3500(FEW) A few
No significant weather changes expected within 2 hours.
RKPC 191000Z 21005KT 9999 FEW035 05/M04 Q1022 NOSIG
TAF
TAF RKPC 191100Z 1912/2018 19005KT CAVOK TN03/1920Z TX10/2005Z BECMG 2001/2002 35007KT BECMG 2011/2012 17006KT 6000 FEW030
Forecast at RKPC
12:00 19-01-18 to 01:00 20-01-18
Wind:5 Knots from 190°
Visibility:6.21 statute miles
NSC
BECMG 01:00 20-01-18 to 11:00 20-01-18
Wind:7 Knots from 350°
Visibility:6.21 statute miles
NSC
BECMG 11:00 20-01-18 to 18:00 20-01-18
Wind:6 Knots from 170°
Visibility:3.73 statute miles
3000FEW A few